Tropical Cyclones
[Index]
Main Index Home Page Stock Weather Photos Extreme Storms Discussion Storm News and Storm Chasing Reports Tropical Cyclones / Hurricanes / Typhoons Weather Data and Links Wild Fires / Bushfires Weather Observation Techniques Weather Picture Catalogue Tornado Pictures and Reports Stock Video Footage and DVDs for sale
Season 1965-1966 Tropical Cyclone CONNIE Track Map
Season 1965-1966 Summaries: [BoM-AU] [JTWC-AU] [JTWC-SIO] [JTWC-SPAC] [JTWC-SH]
<<- Previous TC | JTWC 1965-1966 Season | Next TC ->>

click for intensity scale information  Lat/long Grid: Show Hide

 Date Labels: Show Hide

Joint Typhoon Warning Centre Cyclone Data

Name: CONNIE
Number: 606 / 6627

24 Feb 1966 00:00 UTC to 04 Mar 1966 00:00 UTC

    date/time    lat    long     hPa   cat  kts
1966-02-24 00   14.0   151.3                              
1966-02-24 06   14.3   151.8                              
1966-02-24 12   14.6   152.3                              
1966-02-24 18   14.8   152.9                              
1966-02-25 00   15.0   153.6                              
1966-02-25 06   15.2   154.3                              
1966-02-25 12   15.3   155.0                              
1966-02-25 18   14.8   155.4                              
1966-02-26 00   14.3   155.6                              
1966-02-26 06   15.1   156.0                              
1966-02-26 12   16.0   156.4                              
1966-02-26 18   16.1   157.2                              
1966-02-27 00   16.3   158.0                              
1966-02-27 06   17.0   158.6                              
1966-02-27 12   17.6   159.2                              
1966-02-27 18   18.2   159.6                              
1966-02-28 00   18.8   160.0                              
1966-02-28 06   19.4   160.6                              
1966-02-28 12   20.0   161.2                              
1966-02-28 18   20.4   161.7                              
1966-03-01 00   21.0   162.2                              
1966-03-01 06   21.8   163.0                              
1966-03-01 12   22.7   164.0                              
1966-03-01 18   23.5   164.6                              
1966-03-02 00   24.4   165.5                              
1966-03-02 06   25.8   167.3                              
1966-03-02 12   27.5   169.4                              
1966-03-02 18   29.1   171.4                              
1966-03-03 00   30.7   173.5                              
1966-03-03 06   32.2   176.0                              
1966-03-03 12   33.5   178.6                              
1966-03-03 18   34.6   179.1W                             
1966-03-04 00   35.4   177.0W                             
Winds are 1-min average.

Tropical cyclone tracks developed by Michael Bath using data from the Joint Typhoon Warning Centre Best Tracks and Google Maps.


[Australian Severe Weather index] [Copyright Notice] [Email Contacts] [Search This Site] [Privacy Policy]
Document: tropical_cyclone_connie.htm Updated: 18 September 2016